sensor_id;sensor_type;location;lat;lon;timestamp;temperature;humidity
66328;DHT22;53133;52.862;6.602;2023-02-28T00:00:31;4.90;99.90
66328;DHT22;53133;52.862;6.602;2023-02-28T00:02:57;4.80;99.90
66328;DHT22;53133;52.862;6.602;2023-02-28T00:05:24;4.90;99.90
66328;DHT22;53133;52.862;6.602;2023-02-28T00:07:50;4.90;99.90
66328;DHT22;53133;52.862;6.602;2023-02-28T00:10:27;4.90;99.90
66328;DHT22;53133;52.862;6.602;2023-02-28T00:12:55;4.90;99.90
66328;DHT22;53133;52.862;6.602;2023-02-28T00:15:22;4.90;99.90
66328;DHT22;53133;52.862;6.602;2023-02-28T00:17:48;4.90;99.90
66328;DHT22;53133;52.862;6.602;2023-02-28T00:20:14;4.90;99.90
66328;DHT22;53133;52.862;6.602;2023-02-28T00:22:46;4.90;99.90
66328;DHT22;53133;52.862;6.602;2023-02-28T00:25:15;4.90;99.90
66328;DHT22;53133;52.862;6.602;2023-02-28T00:27:41;5.00;99.90
66328;DHT22;53133;52.862;6.602;2023-02-28T00:30:10;4.90;99.90
66328;DHT22;53133;52.862;6.602;2023-02-28T00:32:36;5.00;99.90
66328;DHT22;53133;52.862;6.602;2023-02-28T00:35:03;5.00;99.90
66328;DHT22;53133;52.862;6.602;2023-02-28T00:37:28;5.00;99.90
66328;DHT22;53133;52.862;6.602;2023-02-28T00:39:54;4.90;99.90
66328;DHT22;53133;52.862;6.602;2023-02-28T00:42:20;4.90;99.90
66328;DHT22;53133;52.862;6.602;2023-02-28T00:44:45;5.00;99.90
66328;DHT22;53133;52.862;6.602;2023-02-28T00:47:11;5.00;99.90
66328;DHT22;53133;52.862;6.602;2023-02-28T00:49:36;5.00;99.90
66328;DHT22;53133;52.862;6.602;2023-02-28T00:52:02;5.00;99.90
66328;DHT22;53133;52.862;6.602;2023-02-28T00:54:28;5.00;99.90
66328;DHT22;53133;52.862;6.602;2023-02-28T00:56:54;5.00;99.90
66328;DHT22;53133;52.862;6.602;2023-02-28T00:59:19;5.00;99.90
66328;DHT22;53133;52.862;6.602;2023-02-28T01:01:46;5.00;99.90
66328;DHT22;53133;52.862;6.602;2023-02-28T01:04:12;5.00;99.90
66328;DHT22;53133;52.862;6.602;2023-02-28T01:06:38;5.00;99.90
66328;DHT22;53133;52.862;6.602;2023-02-28T01:09:05;5.00;99.90
66328;DHT22;53133;52.862;6.602;2023-02-28T01:11:31;4.90;99.90
66328;DHT22;53133;52.862;6.602;2023-02-28T01:13:57;4.90;99.90
66328;DHT22;53133;52.862;6.602;2023-02-28T01:16:22;4.90;99.90
66328;DHT22;53133;52.862;6.602;2023-02-28T01:18:48;5.00;99.90
66328;DHT22;53133;52.862;6.602;2023-02-28T01:21:16;5.00;99.90
66328;DHT22;53133;52.862;6.602;2023-02-28T01:23:42;4.90;99.90
66328;DHT22;53133;52.862;6.602;2023-02-28T01:26:10;5.00;99.90
66328;DHT22;53133;52.862;6.602;2023-02-28T01:28:36;5.00;99.90
66328;DHT22;53133;52.862;6.602;2023-02-28T01:31:02;5.00;99.90
66328;DHT22;53133;52.862;6.602;2023-02-28T01:33:28;5.00;99.90
66328;DHT22;53133;52.862;6.602;2023-02-28T01:36:04;5.00;99.90
66328;DHT22;53133;52.862;6.602;2023-02-28T01:38:30;5.00;99.90
66328;DHT22;53133;52.862;6.602;2023-02-28T01:40:57;4.90;99.90
66328;DHT22;53133;52.862;6.602;2023-02-28T01:43:26;4.90;99.90
66328;DHT22;53133;52.862;6.602;2023-02-28T01:45:53;4.90;99.90
66328;DHT22;53133;52.862;6.602;2023-02-28T01:48:22;4.90;99.90
66328;DHT22;53133;52.862;6.602;2023-02-28T01:50:51;4.90;99.90
66328;DHT22;53133;52.862;6.602;2023-02-28T01:53:24;4.90;99.90
66328;DHT22;53133;52.862;6.602;2023-02-28T01:55:52;4.90;99.90
66328;DHT22;53133;52.862;6.602;2023-02-28T01:58:19;4.90;99.90
66328;DHT22;53133;52.862;6.602;2023-02-28T02:00:45;5.00;99.90
66328;DHT22;53133;52.862;6.602;2023-02-28T02:03:15;5.00;99.90
66328;DHT22;53133;52.862;6.602;2023-02-28T02:05:44;5.00;99.90
66328;DHT22;53133;52.862;6.602;2023-02-28T02:08:25;4.90;99.90
66328;DHT22;53133;52.862;6.602;2023-02-28T02:10:57;4.90;99.90
66328;DHT22;53133;52.862;6.602;2023-02-28T02:13:26;4.90;99.90
66328;DHT22;53133;52.862;6.602;2023-02-28T02:21:25;4.90;99.90
66328;DHT22;53133;52.862;6.602;2023-02-28T02:33:15;4.90;99.90
66328;DHT22;53133;52.862;6.602;2023-02-28T02:38:38;4.90;99.90
66328;DHT22;53133;52.862;6.602;2023-02-28T02:44:18;4.90;99.90
66328;DHT22;53133;52.862;6.602;2023-02-28T02:46:46;4.90;99.90
66328;DHT22;53133;52.862;6.602;2023-02-28T02:49:20;4.80;99.90
66328;DHT22;53133;52.862;6.602;2023-02-28T02:51:47;4.80;99.90
66328;DHT22;53133;52.862;6.602;2023-02-28T02:54:20;4.80;99.90
66328;DHT22;53133;52.862;6.602;2023-02-28T02:56:49;4.80;99.90
66328;DHT22;53133;52.862;6.602;2023-02-28T02:59:18;4.80;99.90
66328;DHT22;53133;52.862;6.602;2023-02-28T03:01:50;4.90;99.90
66328;DHT22;53133;52.862;6.602;2023-02-28T03:04:20;4.90;99.90
66328;DHT22;53133;52.862;6.602;2023-02-28T03:06:46;4.80;99.90
66328;DHT22;53133;52.862;6.602;2023-02-28T03:09:12;4.80;99.90
66328;DHT22;53133;52.862;6.602;2023-02-28T03:11:38;4.80;99.90
66328;DHT22;53133;52.862;6.602;2023-02-28T03:17:07;4.80;99.90
66328;DHT22;53133;52.862;6.602;2023-02-28T03:25:09;4.80;99.90
66328;DHT22;53133;52.862;6.602;2023-02-28T03:30:52;4.80;99.90
66328;DHT22;53133;52.862;6.602;2023-02-28T03:35:34;4.80;99.90
66328;DHT22;53133;52.862;6.602;2023-02-28T03:38:05;4.70;99.90
66328;DHT22;53133;52.862;6.602;2023-02-28T03:40:33;4.80;99.90
66328;DHT22;53133;52.862;6.602;2023-02-28T03:43:07;4.70;99.90
66328;DHT22;53133;52.862;6.602;2023-02-28T03:45:36;4.80;99.90
66328;DHT22;53133;52.862;6.602;2023-02-28T03:50:41;4.70;99.90
66328;DHT22;53133;52.862;6.602;2023-02-28T03:53:37;4.70;99.90
66328;DHT22;53133;52.862;6.602;2023-02-28T04:01:31;4.70;99.90
66328;DHT22;53133;52.862;6.602;2023-02-28T04:04:00;4.70;99.90
66328;DHT22;53133;52.862;6.602;2023-02-28T04:06:26;4.70;99.90
66328;DHT22;53133;52.862;6.602;2023-02-28T04:08:52;4.70;99.90
66328;DHT22;53133;52.862;6.602;2023-02-28T04:14:01;4.80;99.90
66328;DHT22;53133;52.862;6.602;2023-02-28T04:16:28;4.80;99.90
66328;DHT22;53133;52.862;6.602;2023-02-28T04:18:54;4.80;99.90
66328;DHT22;53133;52.862;6.602;2023-02-28T04:21:37;4.80;99.90
66328;DHT22;53133;52.862;6.602;2023-02-28T04:24:05;4.80;99.90
66328;DHT22;53133;52.862;6.602;2023-02-28T04:26:31;4.80;99.90
66328;DHT22;53133;52.862;6.602;2023-02-28T04:28:58;4.80;99.90
66328;DHT22;53133;52.862;6.602;2023-02-28T04:31:24;4.80;99.90
66328;DHT22;53133;52.862;6.602;2023-02-28T04:33:49;4.80;99.90
66328;DHT22;53133;52.862;6.602;2023-02-28T04:36:15;4.80;99.90
66328;DHT22;53133;52.862;6.602;2023-02-28T04:38:43;4.80;99.90
66328;DHT22;53133;52.862;6.602;2023-02-28T04:41:09;4.80;99.90
66328;DHT22;53133;52.862;6.602;2023-02-28T04:43:35;4.70;99.90
66328;DHT22;53133;52.862;6.602;2023-02-28T04:46:02;4.70;99.90
66328;DHT22;53133;52.862;6.602;2023-02-28T04:48:30;4.70;99.90
66328;DHT22;53133;52.862;6.602;2023-02-28T04:51:03;4.70;99.90
66328;DHT22;53133;52.862;6.602;2023-02-28T04:53:29;4.70;99.90
66328;DHT22;53133;52.862;6.602;2023-02-28T04:55:56;4.70;99.90
66328;DHT22;53133;52.862;6.602;2023-02-28T04:58:21;4.70;99.90
66328;DHT22;53133;52.862;6.602;2023-02-28T05:00:51;4.70;99.90
66328;DHT22;53133;52.862;6.602;2023-02-28T05:03:16;4.70;99.90
66328;DHT22;53133;52.862;6.602;2023-02-28T05:05:42;4.70;99.90
66328;DHT22;53133;52.862;6.602;2023-02-28T05:08:08;4.70;99.90
66328;DHT22;53133;52.862;6.602;2023-02-28T05:10:35;4.70;99.90
66328;DHT22;53133;52.862;6.602;2023-02-28T05:13:01;4.70;99.90
66328;DHT22;53133;52.862;6.602;2023-02-28T05:15:26;4.60;99.90
66328;DHT22;53133;52.862;6.602;2023-02-28T05:17:52;4.60;99.90
66328;DHT22;53133;52.862;6.602;2023-02-28T05:20:18;4.60;99.90
66328;DHT22;53133;52.862;6.602;2023-02-28T05:22:44;4.50;99.90
66328;DHT22;53133;52.862;6.602;2023-02-28T05:25:17;4.50;99.90
66328;DHT22;53133;52.862;6.602;2023-02-28T05:27:43;4.50;99.90
66328;DHT22;53133;52.862;6.602;2023-02-28T05:30:10;4.50;99.90
66328;DHT22;53133;52.862;6.602;2023-02-28T05:32:39;4.40;99.90
66328;DHT22;53133;52.862;6.602;2023-02-28T05:35:09;4.40;99.90
66328;DHT22;53133;52.862;6.602;2023-02-28T05:37:36;4.40;99.90
66328;DHT22;53133;52.862;6.602;2023-02-28T05:40:02;4.40;99.90
66328;DHT22;53133;52.862;6.602;2023-02-28T05:42:31;4.40;99.90
66328;DHT22;53133;52.862;6.602;2023-02-28T05:44:57;4.40;99.90
66328;DHT22;53133;52.862;6.602;2023-02-28T05:47:23;4.40;99.90
66328;DHT22;53133;52.862;6.602;2023-02-28T05:49:49;4.40;99.90
66328;DHT22;53133;52.862;6.602;2023-02-28T05:52:15;4.40;99.90
66328;DHT22;53133;52.862;6.602;2023-02-28T05:54:41;4.40;99.90
66328;DHT22;53133;52.862;6.602;2023-02-28T05:57:07;4.40;99.90
66328;DHT22;53133;52.862;6.602;2023-02-28T05:59:32;4.40;99.90
66328;DHT22;53133;52.862;6.602;2023-02-28T06:01:58;4.40;99.90
66328;DHT22;53133;52.862;6.602;2023-02-28T06:04:24;4.40;99.90
66328;DHT22;53133;52.862;6.602;2023-02-28T06:06:50;4.30;99.90
66328;DHT22;53133;52.862;6.602;2023-02-28T06:09:16;4.30;99.90
66328;DHT22;53133;52.862;6.602;2023-02-28T06:11:42;4.30;99.90
66328;DHT22;53133;52.862;6.602;2023-02-28T06:14:16;4.30;99.90
66328;DHT22;53133;52.862;6.602;2023-02-28T06:16:42;4.30;99.90
66328;DHT22;53133;52.862;6.602;2023-02-28T06:19:09;4.30;99.90
66328;DHT22;53133;52.862;6.602;2023-02-28T06:21:35;4.30;99.90
66328;DHT22;53133;52.862;6.602;2023-02-28T06:24:01;4.20;99.90
66328;DHT22;53133;52.862;6.602;2023-02-28T06:26:27;4.20;99.90
66328;DHT22;53133;52.862;6.602;2023-02-28T06:28:53;4.20;99.90
66328;DHT22;53133;52.862;6.602;2023-02-28T06:31:19;4.30;99.90
66328;DHT22;53133;52.862;6.602;2023-02-28T06:33:45;4.20;99.90
66328;DHT22;53133;52.862;6.602;2023-02-28T06:36:12;4.20;99.90
66328;DHT22;53133;52.862;6.602;2023-02-28T06:38:38;4.30;99.90
66328;DHT22;53133;52.862;6.602;2023-02-28T06:41:05;4.30;99.90
66328;DHT22;53133;52.862;6.602;2023-02-28T06:43:34;4.20;99.90
66328;DHT22;53133;52.862;6.602;2023-02-28T06:46:02;4.20;99.90
66328;DHT22;53133;52.862;6.602;2023-02-28T06:48:28;4.30;99.90
66328;DHT22;53133;52.862;6.602;2023-02-28T06:51:12;4.30;99.90
66328;DHT22;53133;52.862;6.602;2023-02-28T06:53:39;4.20;99.90
66328;DHT22;53133;52.862;6.602;2023-02-28T06:56:07;4.20;99.90
66328;DHT22;53133;52.862;6.602;2023-02-28T06:58:33;4.20;99.90
66328;DHT22;53133;52.862;6.602;2023-02-28T07:00:59;4.30;99.90
66328;DHT22;53133;52.862;6.602;2023-02-28T07:03:25;4.30;99.90
66328;DHT22;53133;52.862;6.602;2023-02-28T07:05:50;4.20;99.90
66328;DHT22;53133;52.862;6.602;2023-02-28T07:08:16;4.30;99.90
66328;DHT22;53133;52.862;6.602;2023-02-28T07:10:42;4.30;99.90
66328;DHT22;53133;52.862;6.602;2023-02-28T07:13:09;4.30;99.90
66328;DHT22;53133;52.862;6.602;2023-02-28T07:15:36;4.30;99.90
66328;DHT22;53133;52.862;6.602;2023-02-28T07:18:01;4.30;99.90
66328;DHT22;53133;52.862;6.602;2023-02-28T07:20:29;4.30;99.90
66328;DHT22;53133;52.862;6.602;2023-02-28T07:22:54;4.30;99.90
66328;DHT22;53133;52.862;6.602;2023-02-28T07:25:23;4.40;99.90
66328;DHT22;53133;52.862;6.602;2023-02-28T07:27:49;4.40;99.90
66328;DHT22;53133;52.862;6.602;2023-02-28T07:30:15;4.40;99.90
66328;DHT22;53133;52.862;6.602;2023-02-28T07:32:41;4.40;99.90
66328;DHT22;53133;52.862;6.602;2023-02-28T07:35:07;4.40;99.90
66328;DHT22;53133;52.862;6.602;2023-02-28T07:37:32;4.40;99.90
66328;DHT22;53133;52.862;6.602;2023-02-28T07:40:06;4.40;99.90
66328;DHT22;53133;52.862;6.602;2023-02-28T07:42:37;4.40;99.90
66328;DHT22;53133;52.862;6.602;2023-02-28T07:45:03;4.40;99.90
66328;DHT22;53133;52.862;6.602;2023-02-28T07:47:30;4.40;99.90
66328;DHT22;53133;52.862;6.602;2023-02-28T07:49:56;4.40;99.90
66328;DHT22;53133;52.862;6.602;2023-02-28T07:52:22;4.50;99.90
66328;DHT22;53133;52.862;6.602;2023-02-28T07:54:51;4.50;99.90
66328;DHT22;53133;52.862;6.602;2023-02-28T07:57:18;4.50;99.90
66328;DHT22;53133;52.862;6.602;2023-02-28T07:59:44;4.60;99.90
66328;DHT22;53133;52.862;6.602;2023-02-28T08:02:14;4.60;99.90
66328;DHT22;53133;52.862;6.602;2023-02-28T08:04:39;4.70;99.90
66328;DHT22;53133;52.862;6.602;2023-02-28T08:07:05;4.70;99.90
66328;DHT22;53133;52.862;6.602;2023-02-28T08:09:31;4.70;99.90
66328;DHT22;53133;52.862;6.602;2023-02-28T08:11:56;4.80;99.90
66328;DHT22;53133;52.862;6.602;2023-02-28T08:14:22;4.80;99.90
66328;DHT22;53133;52.862;6.602;2023-02-28T08:16:48;4.80;99.90
66328;DHT22;53133;52.862;6.602;2023-02-28T08:19:13;4.80;99.90
66328;DHT22;53133;52.862;6.602;2023-02-28T08:21:39;4.90;99.90
66328;DHT22;53133;52.862;6.602;2023-02-28T08:24:05;4.80;99.90
66328;DHT22;53133;52.862;6.602;2023-02-28T08:26:31;4.80;99.90
66328;DHT22;53133;52.862;6.602;2023-02-28T08:28:57;4.80;99.90
66328;DHT22;53133;52.862;6.602;2023-02-28T08:31:22;4.80;99.90
66328;DHT22;53133;52.862;6.602;2023-02-28T08:33:48;4.80;99.90
66328;DHT22;53133;52.862;6.602;2023-02-28T08:36:16;4.90;99.90
66328;DHT22;53133;52.862;6.602;2023-02-28T08:38:42;4.90;99.90
66328;DHT22;53133;52.862;6.602;2023-02-28T08:41:10;4.90;99.90
66328;DHT22;53133;52.862;6.602;2023-02-28T08:43:37;4.90;99.90
66328;DHT22;53133;52.862;6.602;2023-02-28T08:46:03;5.00;99.90
66328;DHT22;53133;52.862;6.602;2023-02-28T08:48:32;5.00;99.90
66328;DHT22;53133;52.862;6.602;2023-02-28T08:51:01;5.10;99.90
66328;DHT22;53133;52.862;6.602;2023-02-28T08:53:27;5.10;99.90
66328;DHT22;53133;52.862;6.602;2023-02-28T08:56:01;5.10;99.90
66328;DHT22;53133;52.862;6.602;2023-02-28T08:58:27;5.10;99.90
66328;DHT22;53133;52.862;6.602;2023-02-28T09:00:53;5.10;99.90
66328;DHT22;53133;52.862;6.602;2023-02-28T09:03:20;5.20;99.90
66328;DHT22;53133;52.862;6.602;2023-02-28T09:06:00;5.20;99.90
66328;DHT22;53133;52.862;6.602;2023-02-28T09:08:29;5.20;99.90
66328;DHT22;53133;52.862;6.602;2023-02-28T09:10:56;5.20;99.90
66328;DHT22;53133;52.862;6.602;2023-02-28T09:13:24;5.20;99.90
66328;DHT22;53133;52.862;6.602;2023-02-28T09:15:50;5.20;99.90
66328;DHT22;53133;52.862;6.602;2023-02-28T09:18:16;5.20;99.90
66328;DHT22;53133;52.862;6.602;2023-02-28T09:20:42;5.20;99.90
66328;DHT22;53133;52.862;6.602;2023-02-28T09:23:09;5.20;99.90
66328;DHT22;53133;52.862;6.602;2023-02-28T09:25:36;5.20;99.90
66328;DHT22;53133;52.862;6.602;2023-02-28T09:28:02;5.20;99.90
66328;DHT22;53133;52.862;6.602;2023-02-28T09:30:28;5.20;99.90
66328;DHT22;53133;52.862;6.602;2023-02-28T09:32:54;5.10;99.90
66328;DHT22;53133;52.862;6.602;2023-02-28T09:35:23;5.10;99.90
66328;DHT22;53133;52.862;6.602;2023-02-28T09:37:51;5.10;99.90
66328;DHT22;53133;52.862;6.602;2023-02-28T09:40:22;5.10;99.90
66328;DHT22;53133;52.862;6.602;2023-02-28T09:42:51;5.10;99.90
66328;DHT22;53133;52.862;6.602;2023-02-28T09:45:33;5.10;99.90
66328;DHT22;53133;52.862;6.602;2023-02-28T09:48:22;5.20;99.90
66328;DHT22;53133;52.862;6.602;2023-02-28T09:50:52;5.20;99.90
66328;DHT22;53133;52.862;6.602;2023-02-28T09:53:28;5.10;99.90
66328;DHT22;53133;52.862;6.602;2023-02-28T10:04:16;5.20;99.90
66328;DHT22;53133;52.862;6.602;2023-02-28T10:06:48;5.20;99.90
66328;DHT22;53133;52.862;6.602;2023-02-28T10:09:19;5.20;99.90
66328;DHT22;53133;52.862;6.602;2023-02-28T10:11:48;5.20;99.90
66328;DHT22;53133;52.862;6.602;2023-02-28T10:14:18;5.30;99.90
66328;DHT22;53133;52.862;6.602;2023-02-28T10:16:51;5.30;99.90
66328;DHT22;53133;52.862;6.602;2023-02-28T10:19:26;5.30;99.90
66328;DHT22;53133;52.862;6.602;2023-02-28T10:22:11;5.30;99.90
66328;DHT22;53133;52.862;6.602;2023-02-28T10:24:46;5.40;99.90
66328;DHT22;53133;52.862;6.602;2023-02-28T10:27:21;5.40;99.90
66328;DHT22;53133;52.862;6.602;2023-02-28T10:29:50;5.30;99.90
66328;DHT22;53133;52.862;6.602;2023-02-28T10:32:23;5.40;99.90
66328;DHT22;53133;52.862;6.602;2023-02-28T10:35:16;5.40;99.90
66328;DHT22;53133;52.862;6.602;2023-02-28T10:37:45;5.30;99.90
66328;DHT22;53133;52.862;6.602;2023-02-28T10:40:28;5.40;99.90
66328;DHT22;53133;52.862;6.602;2023-02-28T10:43:07;5.40;99.90
66328;DHT22;53133;52.862;6.602;2023-02-28T10:48:38;5.40;99.90
66328;DHT22;53133;52.862;6.602;2023-02-28T10:51:07;5.50;99.90
66328;DHT22;53133;52.862;6.602;2023-02-28T10:53:54;5.50;99.90
66328;DHT22;53133;52.862;6.602;2023-02-28T10:56:22;5.60;99.90
66328;DHT22;53133;52.862;6.602;2023-02-28T10:58:55;5.60;99.90
66328;DHT22;53133;52.862;6.602;2023-02-28T11:01:23;5.60;99.90
66328;DHT22;53133;52.862;6.602;2023-02-28T11:03:49;5.70;99.90
66328;DHT22;53133;52.862;6.602;2023-02-28T11:06:33;5.80;99.90
66328;DHT22;53133;52.862;6.602;2023-02-28T11:09:04;5.80;99.90
66328;DHT22;53133;52.862;6.602;2023-02-28T11:11:42;5.90;99.90
66328;DHT22;53133;52.862;6.602;2023-02-28T11:14:21;5.90;99.90
66328;DHT22;53133;52.862;6.602;2023-02-28T11:16:48;5.90;99.90
66328;DHT22;53133;52.862;6.602;2023-02-28T11:19:35;6.00;99.90
66328;DHT22;53133;52.862;6.602;2023-02-28T11:22:04;5.90;99.90
66328;DHT22;53133;52.862;6.602;2023-02-28T11:24:42;6.00;99.90
66328;DHT22;53133;52.862;6.602;2023-02-28T11:27:43;6.00;99.90
66328;DHT22;53133;52.862;6.602;2023-02-28T11:30:34;6.00;99.90
66328;DHT22;53133;52.862;6.602;2023-02-28T11:32:57;6.00;99.90
66328;DHT22;53133;52.862;6.602;2023-02-28T11:35:28;6.00;99.90
66328;DHT22;53133;52.862;6.602;2023-02-28T11:37:55;6.10;99.90
66328;DHT22;53133;52.862;6.602;2023-02-28T11:40:43;6.10;99.90
66328;DHT22;53133;52.862;6.602;2023-02-28T11:43:21;6.10;98.50
66328;DHT22;53133;52.862;6.602;2023-02-28T11:46:10;6.20;99.90
66328;DHT22;53133;52.862;6.602;2023-02-28T11:48:58;6.20;98.90
66328;DHT22;53133;52.862;6.602;2023-02-28T11:51:36;6.30;99.20
66328;DHT22;53133;52.862;6.602;2023-02-28T11:57:00;6.40;98.30
66328;DHT22;53133;52.862;6.602;2023-02-28T12:05:27;6.70;98.50
66328;DHT22;53133;52.862;6.602;2023-02-28T12:16:40;7.00;96.00
66328;DHT22;53133;52.862;6.602;2023-02-28T12:19:19;7.10;95.00
66328;DHT22;53133;52.862;6.602;2023-02-28T12:27:34;7.40;93.00
66328;DHT22;53133;52.862;6.602;2023-02-28T12:30:13;7.40;94.20
66328;DHT22;53133;52.862;6.602;2023-02-28T12:32:45;7.40;92.40
66328;DHT22;53133;52.862;6.602;2023-02-28T12:35:18;7.40;93.20
66328;DHT22;53133;52.862;6.602;2023-02-28T12:37:52;7.40;92.20
66328;DHT22;53133;52.862;6.602;2023-02-28T12:40:23;7.40;93.10
66328;DHT22;53133;52.862;6.602;2023-02-28T12:45:21;7.40;92.40
66328;DHT22;53133;52.862;6.602;2023-02-28T12:47:51;7.40;92.30
66328;DHT22;53133;52.862;6.602;2023-02-28T12:50:18;7.40;91.70
66328;DHT22;53133;52.862;6.602;2023-02-28T12:58:09;7.40;85.30
66328;DHT22;53133;52.862;6.602;2023-02-28T13:03:36;7.40;85.50
66328;DHT22;53133;52.862;6.602;2023-02-28T13:11:32;7.50;79.20
66328;DHT22;53133;52.862;6.602;2023-02-28T13:14:06;7.40;78.20
66328;DHT22;53133;52.862;6.602;2023-02-28T13:19:28;7.40;78.70
66328;DHT22;53133;52.862;6.602;2023-02-28T13:21:56;7.40;80.60
66328;DHT22;53133;52.862;6.602;2023-02-28T13:24:41;7.40;80.10
66328;DHT22;53133;52.862;6.602;2023-02-28T13:29:40;7.40;79.80
66328;DHT22;53133;52.862;6.602;2023-02-28T13:34:37;7.40;78.70
66328;DHT22;53133;52.862;6.602;2023-02-28T13:39:51;7.50;76.40
66328;DHT22;53133;52.862;6.602;2023-02-28T13:47:28;7.50;74.90
66328;DHT22;53133;52.862;6.602;2023-02-28T13:58:38;7.50;76.50
66328;DHT22;53133;52.862;6.602;2023-02-28T14:05:35;7.60;78.60
66328;DHT22;53133;52.862;6.602;2023-02-28T14:08:22;7.60;78.20
66328;DHT22;53133;52.862;6.602;2023-02-28T14:11:03;7.70;76.70
66328;DHT22;53133;52.862;6.602;2023-02-28T14:16:06;7.70;79.40
66328;DHT22;53133;52.862;6.602;2023-02-28T14:18:34;7.70;78.80
66328;DHT22;53133;52.862;6.602;2023-02-28T14:24:03;7.70;76.60
66328;DHT22;53133;52.862;6.602;2023-02-28T14:37:32;7.80;76.90
66328;DHT22;53133;52.862;6.602;2023-02-28T14:39:59;7.80;77.60
66328;DHT22;53133;52.862;6.602;2023-02-28T14:42:35;7.90;78.00
66328;DHT22;53133;52.862;6.602;2023-02-28T14:45:02;7.90;74.10
66328;DHT22;53133;52.862;6.602;2023-02-28T14:47:31;7.80;75.80
66328;DHT22;53133;52.862;6.602;2023-02-28T14:49:59;7.80;75.30
66328;DHT22;53133;52.862;6.602;2023-02-28T14:52:31;7.90;77.40
66328;DHT22;53133;52.862;6.602;2023-02-28T14:54:58;7.90;77.60
66328;DHT22;53133;52.862;6.602;2023-02-28T14:57:32;7.90;73.70
66328;DHT22;53133;52.862;6.602;2023-02-28T15:02:33;7.80;79.30
66328;DHT22;53133;52.862;6.602;2023-02-28T15:05:10;7.80;78.80
66328;DHT22;53133;52.862;6.602;2023-02-28T15:07:42;7.80;80.20
66328;DHT22;53133;52.862;6.602;2023-02-28T15:12:56;7.70;80.30
66328;DHT22;53133;52.862;6.602;2023-02-28T15:15:28;7.70;78.60
66328;DHT22;53133;52.862;6.602;2023-02-28T15:18:03;7.70;78.90
66328;DHT22;53133;52.862;6.602;2023-02-28T15:20:32;7.70;78.20
66328;DHT22;53133;52.862;6.602;2023-02-28T15:22:58;7.70;78.60
66328;DHT22;53133;52.862;6.602;2023-02-28T15:25:25;7.70;78.20
66328;DHT22;53133;52.862;6.602;2023-02-28T15:27:53;7.70;78.80
66328;DHT22;53133;52.862;6.602;2023-02-28T15:30:28;7.80;78.30
66328;DHT22;53133;52.862;6.602;2023-02-28T15:33:19;7.80;76.90
66328;DHT22;53133;52.862;6.602;2023-02-28T15:35:45;7.90;75.60
66328;DHT22;53133;52.862;6.602;2023-02-28T15:38:23;7.80;78.50
66328;DHT22;53133;52.862;6.602;2023-02-28T15:40:54;7.80;77.70
66328;DHT22;53133;52.862;6.602;2023-02-28T15:45:51;7.90;77.90
66328;DHT22;53133;52.862;6.602;2023-02-28T15:48:18;7.90;79.20
66328;DHT22;53133;52.862;6.602;2023-02-28T15:50:48;7.80;78.60
66328;DHT22;53133;52.862;6.602;2023-02-28T15:53:21;7.80;78.90
66328;DHT22;53133;52.862;6.602;2023-02-28T15:55:54;7.80;78.20
66328;DHT22;53133;52.862;6.602;2023-02-28T15:58:22;7.80;77.60
66328;DHT22;53133;52.862;6.602;2023-02-28T16:01:08;7.80;78.30
66328;DHT22;53133;52.862;6.602;2023-02-28T16:03:46;7.80;78.70
66328;DHT22;53133;52.862;6.602;2023-02-28T16:09:02;7.70;82.30
66328;DHT22;53133;52.862;6.602;2023-02-28T16:11:28;7.70;81.70
66328;DHT22;53133;52.862;6.602;2023-02-28T16:13:54;7.70;81.10
66328;DHT22;53133;52.862;6.602;2023-02-28T16:16:22;7.70;81.30
66328;DHT22;53133;52.862;6.602;2023-02-28T16:18:49;7.70;81.00
66328;DHT22;53133;52.862;6.602;2023-02-28T16:21:15;7.60;83.90
66328;DHT22;53133;52.862;6.602;2023-02-28T16:23:41;7.50;82.80
66328;DHT22;53133;52.862;6.602;2023-02-28T16:26:08;7.50;84.20
66328;DHT22;53133;52.862;6.602;2023-02-28T16:28:35;7.50;83.20
66328;DHT22;53133;52.862;6.602;2023-02-28T16:31:03;7.40;82.50
66328;DHT22;53133;52.862;6.602;2023-02-28T16:33:30;7.40;84.20
66328;DHT22;53133;52.862;6.602;2023-02-28T16:35:57;7.30;84.80
66328;DHT22;53133;52.862;6.602;2023-02-28T16:38:23;7.30;86.90
66328;DHT22;53133;52.862;6.602;2023-02-28T16:40:51;7.20;87.80
66328;DHT22;53133;52.862;6.602;2023-02-28T16:43:23;7.10;88.30
66328;DHT22;53133;52.862;6.602;2023-02-28T16:45:55;7.10;87.30
66328;DHT22;53133;52.862;6.602;2023-02-28T16:48:21;7.00;90.00
66328;DHT22;53133;52.862;6.602;2023-02-28T16:50:47;6.90;90.20
66328;DHT22;53133;52.862;6.602;2023-02-28T16:53:13;6.80;90.80
66328;DHT22;53133;52.862;6.602;2023-02-28T16:55:39;6.80;91.80
66328;DHT22;53133;52.862;6.602;2023-02-28T16:58:04;6.70;92.00
66328;DHT22;53133;52.862;6.602;2023-02-28T17:00:31;6.60;92.70
66328;DHT22;53133;52.862;6.602;2023-02-28T17:02:57;6.60;93.80
66328;DHT22;53133;52.862;6.602;2023-02-28T17:05:24;6.50;94.50
66328;DHT22;53133;52.862;6.602;2023-02-28T17:07:50;6.40;94.70
66328;DHT22;53133;52.862;6.602;2023-02-28T17:10:19;6.30;95.20
66328;DHT22;53133;52.862;6.602;2023-02-28T17:12:45;6.20;95.50
66328;DHT22;53133;52.862;6.602;2023-02-28T17:15:13;6.10;95.60
66328;DHT22;53133;52.862;6.602;2023-02-28T17:17:40;6.00;95.60
66328;DHT22;53133;52.862;6.602;2023-02-28T17:20:07;6.00;95.90
66328;DHT22;53133;52.862;6.602;2023-02-28T17:22:35;5.90;96.10
66328;DHT22;53133;52.862;6.602;2023-02-28T17:25:01;5.90;96.80
66328;DHT22;53133;52.862;6.602;2023-02-28T17:27:26;5.80;97.30
66328;DHT22;53133;52.862;6.602;2023-02-28T17:29:52;5.70;98.80
66328;DHT22;53133;52.862;6.602;2023-02-28T17:32:17;5.70;99.60
66328;DHT22;53133;52.862;6.602;2023-02-28T17:34:44;5.60;99.90
66328;DHT22;53133;52.862;6.602;2023-02-28T17:37:11;5.60;99.90
66328;DHT22;53133;52.862;6.602;2023-02-28T17:39:36;5.50;99.90
66328;DHT22;53133;52.862;6.602;2023-02-28T17:42:02;5.40;99.90
66328;DHT22;53133;52.862;6.602;2023-02-28T17:44:28;5.40;99.90
66328;DHT22;53133;52.862;6.602;2023-02-28T17:46:54;5.30;99.90
66328;DHT22;53133;52.862;6.602;2023-02-28T17:49:21;5.20;99.90
66328;DHT22;53133;52.862;6.602;2023-02-28T17:51:47;5.20;99.90
66328;DHT22;53133;52.862;6.602;2023-02-28T17:54:13;5.10;99.90
66328;DHT22;53133;52.862;6.602;2023-02-28T17:56:40;5.10;99.90
66328;DHT22;53133;52.862;6.602;2023-02-28T17:59:05;5.00;99.90
66328;DHT22;53133;52.862;6.602;2023-02-28T18:01:31;4.90;99.90
66328;DHT22;53133;52.862;6.602;2023-02-28T18:03:57;4.90;99.90
66328;DHT22;53133;52.862;6.602;2023-02-28T18:06:30;4.90;99.90
66328;DHT22;53133;52.862;6.602;2023-02-28T18:08:57;4.80;99.90
66328;DHT22;53133;52.862;6.602;2023-02-28T18:11:23;4.80;99.90
66328;DHT22;53133;52.862;6.602;2023-02-28T18:13:52;4.70;99.90
66328;DHT22;53133;52.862;6.602;2023-02-28T18:16:19;4.70;99.90
66328;DHT22;53133;52.862;6.602;2023-02-28T18:18:46;4.70;99.90
66328;DHT22;53133;52.862;6.602;2023-02-28T18:21:14;4.60;99.90
66328;DHT22;53133;52.862;6.602;2023-02-28T18:23:40;4.60;99.90
66328;DHT22;53133;52.862;6.602;2023-02-28T18:26:17;4.50;99.90
66328;DHT22;53133;52.862;6.602;2023-02-28T18:28:43;4.50;99.90